createdAt,value
2022-11-16T00:04:06.883Z,5.47
2022-11-16T00:09:23.404Z,5.50
2022-11-16T00:14:28.894Z,5.48
2022-11-16T00:19:30.293Z,5.53
2022-11-16T00:24:31.172Z,5.50
2022-11-16T00:29:33.300Z,5.47
2022-11-16T00:34:34.313Z,5.45
2022-11-16T00:39:35.263Z,5.47
2022-11-16T00:44:37.411Z,5.46
2022-11-16T00:49:38.564Z,5.41
2022-11-16T00:54:39.476Z,5.47
2022-11-16T00:59:41.854Z,5.56
2022-11-16T01:04:42.671Z,5.53
2022-11-16T01:09:43.456Z,5.56
2022-11-16T01:14:48.102Z,5.45
2022-11-16T01:19:48.854Z,5.53
2022-11-16T01:24:49.829Z,5.53
2022-11-16T01:29:51.995Z,5.49
2022-11-16T01:34:52.833Z,5.56
2022-11-16T01:39:58.984Z,5.59
2022-11-16T01:45:06.531Z,5.65
2022-11-16T01:50:11.729Z,5.63
2022-11-16T01:55:15.412Z,5.59
2022-11-16T02:00:43.831Z,5.61
2022-11-16T02:06:25.330Z,5.62
2022-11-16T02:11:54.104Z,5.51
2022-11-16T02:17:06.201Z,5.65
2022-11-16T02:22:25.594Z,5.64
2022-11-16T02:27:50.696Z,5.66
2022-11-16T02:32:56.333Z,5.64
2022-11-16T02:38:01.037Z,5.67
2022-11-16T02:43:08.113Z,5.62
2022-11-16T02:48:16.072Z,5.68
2022-11-16T02:53:16.874Z,5.64
2022-11-16T02:58:21.411Z,5.72
2022-11-16T03:03:32.819Z,5.81
2022-11-16T03:08:37.667Z,5.81
2022-11-16T03:13:41.777Z,5.91
2022-11-16T03:18:45.680Z,6.04
2022-11-16T03:23:47.435Z,6.10
2022-11-16T03:28:56.304Z,6.28
2022-11-16T03:34:01.493Z,6.43
2022-11-16T03:39:09.413Z,6.55
2022-11-16T03:44:14.598Z,6.59
2022-11-16T03:49:16.777Z,6.64
2022-11-16T03:54:18.845Z,6.64
2022-11-16T03:59:19.831Z,6.68
2022-11-16T04:04:39.577Z,6.68
2022-11-16T04:10:00.113Z,6.73
2022-11-16T04:15:18.457Z,6.79
2022-11-16T04:20:38.321Z,6.81
2022-11-16T04:25:41.209Z,6.80
2022-11-16T04:31:09.281Z,6.79
2022-11-16T04:36:30.700Z,6.82
2022-11-16T04:41:50.522Z,6.83
2022-11-16T04:47:10.156Z,6.83
2022-11-16T04:52:14.199Z,6.79
2022-11-16T04:57:16.732Z,6.74
2022-11-16T05:02:18.191Z,6.72
2022-11-16T05:07:28.424Z,6.77
2022-11-16T05:12:37.402Z,6.77
2022-11-16T05:17:40.627Z,6.73
2022-11-16T05:22:55.036Z,6.78
2022-11-16T05:27:57.581Z,6.78
2022-11-16T05:32:58.383Z,6.85
2022-11-16T05:38:00.848Z,6.88
2022-11-16T05:43:02.397Z,6.83
2022-11-16T05:48:09.141Z,6.69
2022-11-16T05:53:11.611Z,6.76
2022-11-16T05:58:13.247Z,6.79
2022-11-16T06:03:14.399Z,6.85
2022-11-16T06:08:16.617Z,6.91
2022-11-16T06:13:17.674Z,6.91
2022-11-16T06:18:19.063Z,6.86
2022-11-16T06:23:21.697Z,6.94
2022-11-16T06:28:23.773Z,6.99
2022-11-16T06:33:25.677Z,6.99
2022-11-16T06:38:30.412Z,7.04
2022-11-16T06:43:31.485Z,6.99
2022-11-16T06:48:34.795Z,7.10
2022-11-16T06:53:41.147Z,7.15
2022-11-16T06:58:43.002Z,7.17
2022-11-16T07:03:45.232Z,7.14
2022-11-16T07:08:49.218Z,7.14
2022-11-16T07:13:56.561Z,7.14
2022-11-16T07:18:59.027Z,7.18
2022-11-16T07:24:03.632Z,7.24
2022-11-16T07:29:05.755Z,7.35
2022-11-16T07:34:08.620Z,7.37
2022-11-16T07:39:25.298Z,7.44
2022-11-16T07:44:28.090Z,7.43
2022-11-16T07:49:39.322Z,7.51
2022-11-16T07:54:51.343Z,7.60
2022-11-16T07:59:53.406Z,7.65
2022-11-16T08:04:54.483Z,7.80
2022-11-16T08:10:00.758Z,8.07
2022-11-16T08:15:01.846Z,8.25
2022-11-16T08:20:02.946Z,7.99
2022-11-16T08:25:07.008Z,8.06
2022-11-16T08:30:10.013Z,8.04
2022-11-16T08:35:12.736Z,8.17
2022-11-16T08:40:15.920Z,8.24
2022-11-16T08:45:17.830Z,8.12
2022-11-16T08:50:19.557Z,8.23
2022-11-16T08:55:21.699Z,8.22
2022-11-16T09:00:22.622Z,8.46
2022-11-16T09:05:23.427Z,8.40
2022-11-16T09:10:26.085Z,8.54
2022-11-16T09:15:28.060Z,8.49
2022-11-16T09:20:29.331Z,8.80
2022-11-16T09:25:31.465Z,8.91
2022-11-16T09:30:32.357Z,9.05
2022-11-16T09:35:34.965Z,8.88
2022-11-16T09:40:39.463Z,8.76
2022-11-16T09:45:45.962Z,8.86
2022-11-16T09:50:49.619Z,8.90
2022-11-16T09:55:54.018Z,9.03
2022-11-16T10:00:59.891Z,9.04
2022-11-16T10:06:03.906Z,9.14
2022-11-16T10:11:24.242Z,9.12
2022-11-16T10:16:35.852Z,9.15
2022-11-16T10:21:51.534Z,9.09
2022-11-16T10:27:03.332Z,9.17
2022-11-16T10:32:18.073Z,9.25
2022-11-16T10:37:18.963Z,9.40
2022-11-16T10:42:27.898Z,9.30
2022-11-16T10:47:38.533Z,9.32
2022-11-16T10:52:39.324Z,9.41
2022-11-16T10:57:57.724Z,9.38
2022-11-16T11:02:58.521Z,9.45
2022-11-16T11:08:04.683Z,9.53
2022-11-16T11:13:21.822Z,9.59
2022-11-16T11:18:27.895Z,9.55
2022-11-16T11:23:29.282Z,9.45
2022-11-16T11:28:33.535Z,9.61
2022-11-16T11:33:37.532Z,9.57
2022-11-16T11:39:00.231Z,9.80
2022-11-16T11:44:04.320Z,9.80
2022-11-16T11:49:14.494Z,9.69
2022-11-16T11:54:19.098Z,9.69
2022-11-16T11:59:24.613Z,9.75
2022-11-16T12:04:58.211Z,9.79
2022-11-16T12:10:08.749Z,9.89
2022-11-16T12:15:32.678Z,10.27
2022-11-16T12:20:44.095Z,10.46
2022-11-16T12:25:55.773Z,10.50
2022-11-16T12:31:12.887Z,10.53
2022-11-16T12:36:25.732Z,10.38
2022-11-16T12:41:50.125Z,10.21
2022-11-16T12:47:01.109Z,10.17
2022-11-16T12:52:14.780Z,10.34
2022-11-16T12:57:26.064Z,10.27
2022-11-16T13:02:42.235Z,10.17
2022-11-16T13:07:46.656Z,10.07
2022-11-16T13:12:55.869Z,9.85
2022-11-16T13:18:09.088Z,9.67
2022-11-16T13:23:15.661Z,9.59
2022-11-16T13:28:25.433Z,9.38
2022-11-16T13:33:40.703Z,9.18
2022-11-16T13:38:52.226Z,8.98
2022-11-16T13:43:53.131Z,8.71
2022-11-16T13:48:55.265Z,8.59
2022-11-16T13:59:17.741Z,8.58
2022-11-16T14:04:55.783Z,8.41
2022-11-16T14:09:56.663Z,8.36
2022-11-16T14:15:13.540Z,8.27
2022-11-16T14:20:21.162Z,8.14
2022-11-16T14:25:33.271Z,8.12
2022-11-16T14:30:44.700Z,8.28
2022-11-16T14:35:52.571Z,8.27
2022-11-16T14:40:59.724Z,8.26
2022-11-16T14:46:05.307Z,8.11
2022-11-16T14:51:11.515Z,8.17
2022-11-16T14:56:14.315Z,8.11
2022-11-16T15:01:15.942Z,8.15
2022-11-16T15:06:18.181Z,8.41
2022-11-16T15:11:25.823Z,8.23
2022-11-16T15:16:26.615Z,8.11
2022-11-16T15:21:29.823Z,7.99
2022-11-16T15:26:30.644Z,7.59
2022-11-16T15:31:31.485Z,7.48
2022-11-16T15:36:40.135Z,7.39
2022-11-16T15:41:41.273Z,7.31
2022-11-16T15:46:43.433Z,7.26
2022-11-16T15:51:45.792Z,7.55
2022-11-16T15:56:46.657Z,7.22
2022-11-16T16:01:47.758Z,7.15
2022-11-16T16:06:51.674Z,7.05
2022-11-16T16:11:52.831Z,7.07
2022-11-16T16:16:55.727Z,7.03
2022-11-16T16:21:58.637Z,6.98
2022-11-16T16:26:59.456Z,6.97
2022-11-16T16:32:00.310Z,6.98
2022-11-16T16:37:02.512Z,6.95
2022-11-16T16:42:04.207Z,6.89
2022-11-16T16:47:05.184Z,6.84
2022-11-16T16:52:08.239Z,6.86
2022-11-16T16:57:14.237Z,6.84
2022-11-16T17:02:15.547Z,6.79
2022-11-16T17:07:17.941Z,6.82
2022-11-16T17:12:18.918Z,6.75
2022-11-16T17:17:20.304Z,6.78
2022-11-16T17:22:22.788Z,6.79
2022-11-16T17:27:23.649Z,6.74
2022-11-16T17:32:24.512Z,6.75
2022-11-16T17:37:26.763Z,6.77
2022-11-16T17:42:27.550Z,6.76
2022-11-16T17:47:28.370Z,6.74
2022-11-16T17:52:30.516Z,6.75
2022-11-16T17:57:31.393Z,6.73
2022-11-16T18:02:32.488Z,6.73
2022-11-16T18:07:36.177Z,6.76
2022-11-16T18:12:38.524Z,6.77
2022-11-16T18:17:39.334Z,6.79
2022-11-16T18:22:41.470Z,6.77
2022-11-16T18:27:42.257Z,6.69
2022-11-16T18:32:43.082Z,6.64
2022-11-16T18:37:45.205Z,6.57
2022-11-16T18:42:46.040Z,6.50
2022-11-16T18:47:47.063Z,6.48
2022-11-16T18:52:49.228Z,6.38
2022-11-16T18:57:50.131Z,6.35
2022-11-16T19:02:50.945Z,6.36
2022-11-16T19:07:53.188Z,6.30
2022-11-16T19:12:54.008Z,6.23
2022-11-16T19:18:19.775Z,6.18
2022-11-16T19:23:16.943Z,6.11
2022-11-16T19:28:17.768Z,6.08
2022-11-16T19:33:18.545Z,6.04
2022-11-16T19:38:20.697Z,5.98
2022-11-16T19:43:21.743Z,5.92
2022-11-16T19:48:22.664Z,5.92
2022-11-16T19:53:24.879Z,5.78
2022-11-16T19:58:25.657Z,5.77
2022-11-16T20:03:26.603Z,5.73
2022-11-16T20:08:28.890Z,5.68
2022-11-16T20:13:29.679Z,5.70
2022-11-16T20:18:32.045Z,5.61
2022-11-16T20:23:35.476Z,5.61
2022-11-16T20:28:37.011Z,5.63
2022-11-16T20:33:38.238Z,5.61
2022-11-16T20:38:41.186Z,5.54
2022-11-16T20:43:43.434Z,5.52
2022-11-16T20:48:44.900Z,5.56
2022-11-16T20:53:48.703Z,5.56
2022-11-16T20:58:50.545Z,5.55
2022-11-16T21:03:51.318Z,5.58
2022-11-16T21:08:53.698Z,5.59
2022-11-16T21:14:12.161Z,5.58
2022-11-16T21:19:13.941Z,5.55
2022-11-16T21:24:16.058Z,5.53
2022-11-16T21:29:16.865Z,5.50
2022-11-16T21:34:18.790Z,5.49
2022-11-16T21:39:20.902Z,5.53
2022-11-16T21:44:21.666Z,5.52
2022-11-16T21:49:22.413Z,5.56
2022-11-16T21:54:44.626Z,5.55
2022-11-16T21:59:45.439Z,5.54
2022-11-16T22:05:03.638Z,5.53
2022-11-16T22:10:08.531Z,5.46
2022-11-16T22:15:10.247Z,5.48
2022-11-16T22:20:11.716Z,5.48
2022-11-16T22:25:14.178Z,5.30
2022-11-16T22:30:16.220Z,5.36
2022-11-16T22:35:17.168Z,5.42
2022-11-16T22:40:19.297Z,5.34
2022-11-16T22:45:20.049Z,5.42
2022-11-16T22:50:21.271Z,5.35
2022-11-16T22:55:23.474Z,5.35
2022-11-16T23:00:24.244Z,5.30
2022-11-16T23:05:25.014Z,5.30
2022-11-16T23:10:27.290Z,5.25
2022-11-16T23:15:45.787Z,5.23
2022-11-16T23:21:03.918Z,5.22
2022-11-16T23:26:30.287Z,5.26
2022-11-16T23:31:31.062Z,5.06
2022-11-16T23:36:31.826Z,5.11
2022-11-16T23:41:51.555Z,5.19
2022-11-16T23:46:52.335Z,5.19
2022-11-16T23:51:53.122Z,5.20
2022-11-16T23:56:55.219Z,5.15
